Time;durP1;ratioP1;P1;durP2;ratioP2;P2;SDS_P1;SDS_P2;PMS_P1;PMS_P2;Temp;Humidity;BMP_temperature;BMP_pressure;BME280_temperature;BME280_humidity;BME280_pressure;Samples;Min_cycle;Max_cycle;Signal;HPM_P1;HPM_P2
2021/09/28 00:01:20;;;;;;;1.93;0.70;;;15.70;99.90;;;;;;5071395;28;20443;-64
2021/09/28 00:03:47;;;;;;;1.80;0.87;;;15.50;99.90;;;;;;5070852;28;20530;-65
2021/09/28 00:06:15;;;;;;;3.40;0.90;;;15.40;99.90;;;;;;5071568;28;21182;-65
2021/09/28 00:08:43;;;;;;;2.43;0.90;;;15.20;99.90;;;;;;5071237;28;20481;-65
2021/09/28 00:11:10;;;;;;;2.57;1.00;;;15.00;99.90;;;;;;5071095;28;21048;-65
2021/09/28 00:13:37;;;;;;;2.00;0.90;;;14.90;99.90;;;;;;5070251;28;20525;-65
2021/09/28 00:16:05;;;;;;;2.57;1.00;;;14.70;99.90;;;;;;5071309;28;20879;-65
2021/09/28 00:18:31;;;;;;;2.83;1.20;;;14.70;99.90;;;;;;5071222;28;20842;-65
2021/09/28 00:20:59;;;;;;;6.30;2.50;;;14.60;99.90;;;;;;5070953;28;20526;-66
2021/09/28 00:23:27;;;;;;;2.80;1.10;;;14.50;99.90;;;;;;5069903;28;20530;-65
2021/09/28 00:25:54;;;;;;;3.00;1.00;;;14.40;99.90;;;;;;5068965;28;20804;-64
2021/09/28 00:28:24;;;;;;;2.63;1.10;;;14.30;99.90;;;;;;5069703;28;20962;-65
2021/09/28 00:30:51;;;;;;;2.73;1.10;;;14.20;99.90;;;;;;5069973;28;20451;-65
2021/09/28 00:33:18;;;;;;;3.00;1.07;;;14.20;99.90;;;;;;5069466;28;20538;-66
2021/09/28 00:35:45;;;;;;;2.60;1.03;;;14.20;99.90;;;;;;5070559;28;20439;-65
2021/09/28 00:38:12;;;;;;;4.97;1.20;;;14.20;99.90;;;;;;5070619;28;20526;-65
2021/09/28 00:40:41;;;;;;;2.20;0.90;;;14.20;99.90;;;;;;5070453;28;20455;-65
2021/09/28 00:43:07;;;;;;;2.00;1.10;;;14.20;99.90;;;;;;5069372;28;20534;-65
2021/09/28 00:45:34;;;;;;;4.63;1.23;;;14.20;99.90;;;;;;5070625;28;20481;-65
2021/09/28 00:48:01;;;;;;;3.33;1.47;;;14.30;99.90;;;;;;5070217;28;20809;-65
2021/09/28 00:50:29;;;;;;;4.00;1.20;;;14.30;99.90;;;;;;5070638;28;20533;-66
2021/09/28 00:52:56;;;;;;;6.77;1.10;;;14.20;99.90;;;;;;5068877;28;20538;-65
2021/09/28 00:55:27;;;;;;;3.10;0.90;;;14.10;99.90;;;;;;5070267;28;20550;-65
2021/09/28 00:57:56;;;;;;;4.13;1.17;;;14.00;99.90;;;;;;5070363;28;20520;-65
2021/09/28 01:00:23;;;;;;;4.17;1.13;;;13.90;99.90;;;;;;5070189;28;20490;-65
2021/09/28 01:02:50;;;;;;;5.00;1.13;;;13.70;99.90;;;;;;5068944;28;20527;-65
2021/09/28 01:05:17;;;;;;;6.57;1.23;;;13.60;99.90;;;;;;5070618;28;20530;-65
2021/09/28 01:07:43;;;;;;;2.90;1.10;;;13.60;99.90;;;;;;5070052;28;20467;-66
2021/09/28 01:10:11;;;;;;;2.73;1.10;;;13.60;99.90;;;;;;5070526;28;20482;-65
2021/09/28 01:12:38;;;;;;;5.57;1.73;;;13.60;99.90;;;;;;5070340;28;20535;-65
2021/09/28 01:15:08;;;;;;;3.37;1.20;;;13.60;99.90;;;;;;5070199;28;20894;-64
2021/09/28 01:17:35;;;;;;;4.20;1.50;;;13.60;99.90;;;;;;5070631;28;20467;-65
2021/09/28 01:20:02;;;;;;;5.10;2.20;;;13.60;99.90;;;;;;5070591;28;20479;-65
2021/09/28 01:22:30;;;;;;;2.47;1.37;;;13.60;99.90;;;;;;5069887;28;20542;-65
2021/09/28 01:24:57;;;;;;;3.17;1.40;;;13.60;99.90;;;;;;5069877;28;21086;-65
2021/09/28 01:27:23;;;;;;;5.00;1.60;;;13.60;99.90;;;;;;5070418;28;20475;-65
2021/09/28 01:29:50;;;;;;;5.50;1.47;;;13.60;99.90;;;;;;5070076;28;20608;-65
2021/09/28 01:32:17;;;;;;;4.53;1.13;;;13.60;99.90;;;;;;5069503;28;20503;-66
2021/09/28 01:34:44;;;;;;;4.23;1.43;;;13.50;99.90;;;;;;5069756;28;20844;-65
2021/09/28 01:37:11;;;;;;;2.93;1.70;;;13.50;99.90;;;;;;5069933;28;20467;-70
2021/09/28 01:39:39;;;;;;;2.33;1.50;;;13.50;99.90;;;;;;5070116;28;20538;-65
2021/09/28 01:42:06;;;;;;;2.97;1.30;;;13.40;99.90;;;;;;5068889;28;20975;-65
2021/09/28 01:44:34;;;;;;;4.23;1.33;;;13.40;99.90;;;;;;5069913;28;20954;-66
2021/09/28 01:47:01;;;;;;;5.40;1.97;;;13.40;99.90;;;;;;5069720;28;20817;-65
2021/09/28 01:49:28;;;;;;;3.23;1.30;;;13.40;99.90;;;;;;5070021;28;20574;-64
2021/09/28 01:51:56;;;;;;;2.50;1.10;;;13.40;99.90;;;;;;5069320;28;20530;-65
2021/09/28 01:54:23;;;;;;;4.67;2.07;;;13.40;99.90;;;;;;5069742;28;20558;-64
2021/09/28 01:56:51;;;;;;;7.70;1.67;;;13.40;99.90;;;;;;5069924;28;20803;-65
2021/09/28 01:59:18;;;;;;;4.23;1.50;;;13.30;99.90;;;;;;5070753;28;20435;-65
2021/09/28 02:01:45;;;;;;;5.30;1.33;;;13.30;99.90;;;;;;5068961;28;21027;-65
2021/09/28 02:04:12;;;;;;;5.30;1.13;;;13.30;99.90;;;;;;5069601;28;20442;-65
2021/09/28 02:06:39;;;;;;;3.83;1.50;;;13.30;99.90;;;;;;5069661;28;21433;-64
2021/09/28 02:09:08;;;;;;;6.47;1.50;;;13.30;99.90;;;;;;5069399;28;21066;-65
2021/09/28 02:11:35;;;;;;;3.50;1.60;;;13.20;99.90;;;;;;5068834;28;20438;-64
2021/09/28 02:14:07;;;;;;;5.63;1.30;;;13.20;99.90;;;;;;5068727;28;20529;-65
2021/09/28 02:16:34;;;;;;;4.70;2.00;;;13.20;99.90;;;;;;5069321;28;21286;-65
2021/09/28 02:19:01;;;;;;;3.60;1.40;;;13.30;99.90;;;;;;5069334;28;21043;-65
2021/09/28 02:21:28;;;;;;;2.97;1.63;;;13.30;99.90;;;;;;5068800;28;20530;-65
2021/09/28 02:23:55;;;;;;;4.67;1.60;;;13.30;99.90;;;;;;5068974;28;20530;-65
2021/09/28 02:26:21;;;;;;;2.93;1.30;;;13.30;99.90;;;;;;5069663;28;20438;-65
2021/09/28 02:28:49;;;;;;;3.37;1.60;;;13.30;99.90;;;;;;5069309;28;20466;-65
2021/09/28 02:31:17;;;;;;;6.57;1.77;;;13.30;99.90;;;;;;5069385;28;20439;-65
2021/09/28 02:33:44;;;;;;;5.10;1.17;;;13.30;99.90;;;;;;5068705;28;20445;-65
2021/09/28 02:36:11;;;;;;;4.33;1.40;;;13.30;99.90;;;;;;5069167;28;20933;-66
2021/09/28 02:38:39;;;;;;;4.73;1.10;;;13.30;99.90;;;;;;5069479;28;21108;-65
2021/09/28 02:41:05;;;;;;;3.97;2.90;;;13.40;99.90;;;;;;5069111;28;20949;-65
2021/09/28 02:43:33;;;;;;;3.63;1.20;;;13.40;99.90;;;;;;5068010;28;20441;-65
2021/09/28 02:45:59;;;;;;;3.37;1.57;;;13.40;99.90;;;;;;5068930;28;20538;-64
2021/09/28 02:48:27;;;;;;;5.57;1.80;;;13.40;99.90;;;;;;5069434;28;20471;-66
2021/09/28 02:50:54;;;;;;;4.00;1.80;;;13.40;99.90;;;;;;5069161;28;20475;-65
2021/09/28 02:53:21;;;;;;;7.00;1.50;;;13.40;99.90;;;;;;5069207;28;20446;-66
2021/09/28 02:55:48;;;;;;;6.63;2.50;;;13.40;99.90;;;;;;5072507;28;20438;-65
2021/09/28 02:58:15;;;;;;;3.40;1.67;;;13.30;99.90;;;;;;5072717;28;20469;-65
2021/09/28 03:00:42;;;;;;;3.13;1.27;;;13.30;99.90;;;;;;5072530;28;20435;-65
2021/09/28 03:03:09;;;;;;;5.03;1.60;;;13.30;99.90;;;;;;5071539;28;20453;-65
2021/09/28 03:05:37;;;;;;;3.70;1.60;;;13.30;99.90;;;;;;5072853;28;20446;-65
2021/09/28 03:08:04;;;;;;;3.63;1.57;;;13.30;99.90;;;;;;5072584;28;20469;-64
2021/09/28 03:10:31;;;;;;;2.10;1.20;;;13.40;99.90;;;;;;5072742;28;20478;-65
2021/09/28 03:12:58;;;;;;;5.40;1.43;;;13.40;99.90;;;;;;5071470;28;20447;-65
2021/09/28 03:15:25;;;;;;;5.00;1.30;;;13.40;99.90;;;;;;5072923;28;20435;-65
2021/09/28 03:17:52;;;;;;;3.53;1.60;;;13.40;99.90;;;;;;5072510;28;20824;-66
2021/09/28 03:20:18;;;;;;;2.90;1.73;;;13.40;99.90;;;;;;5072479;28;20533;-65
2021/09/28 03:22:47;;;;;;;4.73;1.30;;;13.30;99.90;;;;;;5071267;28;20439;-65
2021/09/28 03:25:13;;;;;;;9.47;1.83;;;13.30;99.90;;;;;;5072409;28;20443;-67
2021/09/28 03:27:40;;;;;;;3.87;1.60;;;13.20;99.90;;;;;;5072085;28;20459;-67
2021/09/28 03:30:09;;;;;;;3.13;1.23;;;13.20;99.90;;;;;;5072563;28;20847;-65
2021/09/28 03:32:36;;;;;;;4.50;1.97;;;13.20;99.90;;;;;;5071473;28;20535;-65
2021/09/28 03:35:07;;;;;;;4.80;1.80;;;13.10;99.90;;;;;;5071592;28;20455;-65
2021/09/28 03:37:34;;;;;;;4.00;1.60;;;13.00;99.90;;;;;;5072099;28;20495;-65
2021/09/28 03:40:02;;;;;;;3.33;1.57;;;12.90;99.90;;;;;;5071601;28;20947;-65
2021/09/28 03:42:29;;;;;;;3.43;1.60;;;12.80;99.90;;;;;;5071241;28;20437;-65
2021/09/28 03:44:56;;;;;;;5.93;1.70;;;12.80;99.90;;;;;;5071307;28;21128;-65
2021/09/28 03:47:23;;;;;;;4.40;1.87;;;12.80;99.90;;;;;;5072012;28;21019;-65
2021/09/28 03:49:50;;;;;;;5.57;1.80;;;12.70;99.90;;;;;;5071648;28;20485;-66
2021/09/28 03:52:17;;;;;;;4.20;2.47;;;12.80;99.90;;;;;;5071094;28;20931;-66
2021/09/28 03:54:44;;;;;;;3.83;2.30;;;12.80;99.90;;;;;;5071230;28;20446;-65
2021/09/28 03:57:12;;;;;;;5.40;2.00;;;12.90;99.90;;;;;;5071888;28;20937;-63
2021/09/28 03:59:39;;;;;;;5.23;2.23;;;12.90;99.90;;;;;;5072112;28;20442;-64
2021/09/28 04:02:06;;;;;;;3.53;1.50;;;12.90;99.90;;;;;;5070875;28;20525;-65
2021/09/28 04:04:33;;;;;;;3.90;2.33;;;12.90;99.90;;;;;;5071514;28;20434;-65
2021/09/28 04:07:00;;;;;;;6.10;3.40;;;12.90;99.90;;;;;;5071067;28;20467;-65
2021/09/28 04:09:27;;;;;;;7.80;3.70;;;12.90;99.90;;;;;;5071103;28;20489;-66
2021/09/28 04:11:54;;;;;;;4.93;3.27;;;12.80;99.90;;;;;;5069747;28;20443;-65
2021/09/28 04:14:23;;;;;;;4.57;2.70;;;12.80;99.90;;;;;;5070832;28;20469;-66
2021/09/28 04:16:50;;;;;;;5.73;2.97;;;12.60;99.90;;;;;;5071118;28;20556;-64
2021/09/28 04:19:17;;;;;;;5.87;3.40;;;12.50;99.90;;;;;;5071268;28;20451;-65
2021/09/28 04:21:44;;;;;;;6.20;3.47;;;12.40;99.90;;;;;;5069934;28;20457;-65
2021/09/28 04:24:12;;;;;;;8.67;3.40;;;12.40;99.90;;;;;;5070518;28;20583;-64
2021/09/28 04:26:39;;;;;;;6.17;3.63;;;12.30;99.90;;;;;;5070953;28;20985;-64
2021/09/28 04:29:07;;;;;;;6.63;3.93;;;12.20;99.90;;;;;;5070765;28;20531;-65
2021/09/28 04:31:35;;;;;;;7.00;4.60;;;12.30;99.90;;;;;;5069931;28;20558;-64
2021/09/28 04:34:02;;;;;;;5.70;4.00;;;12.20;99.90;;;;;;5070184;28;20454;-64
2021/09/28 04:36:29;;;;;;;7.60;5.50;;;12.20;99.90;;;;;;5070324;28;20557;-64
2021/09/28 04:38:56;;;;;;;6.83;6.13;;;12.20;99.90;;;;;;5070653;28;20493;-65
2021/09/28 04:41:23;;;;;;;6.20;4.97;;;12.20;99.90;;;;;;5070089;28;20998;-64
2021/09/28 04:43:50;;;;;;;7.07;5.00;;;12.10;99.90;;;;;;5069842;28;21082;-64
2021/09/28 04:46:17;;;;;;;5.10;4.50;;;12.00;99.90;;;;;;5070428;28;20454;-65
2021/09/28 04:48:46;;;;;;;6.40;5.17;;;11.90;99.90;;;;;;5070110;28;20980;-66
2021/09/28 04:51:13;;;;;;;8.73;5.80;;;11.80;99.90;;;;;;5063992;28;21026;-64
2021/09/28 04:53:40;;;;;;;10.60;5.97;;;11.70;99.90;;;;;;5068074;28;20475;-65
2021/09/28 04:56:07;;;;;;;7.93;5.90;;;11.60;99.90;;;;;;5069072;28;20454;-64
2021/09/28 04:58:34;;;;;;;7.60;4.93;;;11.60;99.90;;;;;;5069378;28;20443;-65
2021/09/28 05:01:01;;;;;;;12.27;8.00;;;11.60;99.90;;;;;;5070157;28;20889;-66
2021/09/28 05:03:28;;;;;;;9.40;7.00;;;11.60;99.90;;;;;;5068955;28;20538;-65
2021/09/28 05:05:56;;;;;;;10.97;7.30;;;11.60;99.90;;;;;;5064454;28;21031;-64
2021/09/28 05:08:23;;;;;;;9.23;6.60;;;11.50;99.90;;;;;;5064833;28;20473;-65
2021/09/28 05:10:50;;;;;;;11.17;7.50;;;11.40;99.90;;;;;;5068175;28;20497;-65
2021/09/28 05:13:18;;;;;;;11.33;7.70;;;11.40;99.90;;;;;;5065280;28;20533;-65
2021/09/28 05:15:45;;;;;;;8.00;7.10;;;11.40;99.90;;;;;;5067485;28;20450;-64
2021/09/28 05:18:12;;;;;;;14.70;7.87;;;11.30;99.90;;;;;;5066872;28;20965;-66
2021/09/28 05:20:38;;;;;;;10.50;7.07;;;11.30;99.90;;;;;;5067959;28;20447;-63
2021/09/28 05:23:07;;;;;;;9.90;7.77;;;11.20;99.90;;;;;;5065617;28;20447;-63
2021/09/28 05:25:34;;;;;;;9.90;7.50;;;11.20;99.90;;;;;;5068169;28;20444;-63
2021/09/28 05:28:00;;;;;;;8.80;6.70;;;11.30;99.90;;;;;;5066131;28;20463;-63
2021/09/28 05:30:27;;;;;;;10.70;8.07;;;11.20;99.90;;;;;;5067703;28;20560;-63
2021/09/28 05:32:54;;;;;;;10.60;7.83;;;11.30;99.90;;;;;;5068587;28;20459;-63
2021/09/28 05:35:21;;;;;;;11.40;8.93;;;11.20;99.90;;;;;;5069933;28;20470;-63
2021/09/28 05:37:48;;;;;;;12.70;7.70;;;11.30;99.90;;;;;;5069753;28;20477;-64
2021/09/28 05:40:16;;;;;;;10.97;9.00;;;11.30;99.90;;;;;;5069875;28;20447;-63
2021/09/28 05:42:43;;;;;;;11.00;9.40;;;11.30;99.90;;;;;;5068411;28;20528;-63
2021/09/28 05:45:11;;;;;;;11.47;8.57;;;11.30;99.90;;;;;;5069414;28;20458;-63
2021/09/28 05:47:38;;;;;;;10.97;9.80;;;11.40;99.90;;;;;;5069629;28;20929;-64
2021/09/28 05:50:05;;;;;;;15.53;9.30;;;11.30;99.90;;;;;;5069657;28;20862;-67
2021/09/28 05:52:32;;;;;;;13.63;9.13;;;11.30;99.90;;;;;;5068830;28;20541;-64
2021/09/28 05:55:01;;;;;;;20.40;10.90;;;11.40;99.90;;;;;;5069107;28;20452;-64
2021/09/28 05:57:30;;;;;;;13.90;9.33;;;11.30;99.90;;;;;;5069401;28;20471;-64
2021/09/28 05:59:56;;;;;;;12.83;11.37;;;11.20;99.90;;;;;;5069701;28;20856;-66
2021/09/28 06:02:23;;;;;;;13.20;9.90;;;11.20;99.90;;;;;;5068902;28;20451;-64
2021/09/28 06:04:50;;;;;;;13.83;10.40;;;11.30;99.90;;;;;;5068993;28;20538;-65
2021/09/28 06:07:18;;;;;;;15.80;10.33;;;11.50;99.90;;;;;;5069632;28;20458;-65
2021/09/28 06:09:46;;;;;;;16.70;10.23;;;11.50;99.90;;;;;;5069252;28;20443;-64
2021/09/28 06:12:13;;;;;;;17.30;10.17;;;11.50;99.90;;;;;;5068418;28;20450;-64
2021/09/28 06:14:43;;;;;;;13.30;10.17;;;11.50;99.90;;;;;;5069015;28;20443;-64
2021/09/28 06:17:10;;;;;;;11.00;9.67;;;11.60;99.90;;;;;;5069129;28;20657;-64
2021/09/28 06:19:38;;;;;;;12.90;9.50;;;11.60;99.90;;;;;;5069183;28;20449;-64
2021/09/28 06:22:06;;;;;;;12.67;8.90;;;11.70;99.90;;;;;;5068370;28;20458;-64
2021/09/28 06:24:33;;;;;;;13.93;10.43;;;11.90;99.90;;;;;;5068668;28;20472;-64
2021/09/28 06:27:00;;;;;;;15.90;10.60;;;12.00;99.90;;;;;;5069329;28;20493;-65
2021/09/28 06:29:27;;;;;;;13.97;11.83;;;12.10;99.90;;;;;;5072314;28;20443;-64
2021/09/28 06:31:56;;;;;;;15.33;10.90;;;12.30;99.90;;;;;;5072173;28;20493;-64
2021/09/28 06:34:23;;;;;;;12.90;10.10;;;12.40;99.90;;;;;;5072500;28;20439;-64
2021/09/28 06:36:49;;;;;;;11.40;9.33;;;12.50;99.90;;;;;;5072782;28;20473;-64
2021/09/28 06:39:16;;;;;;;13.27;10.30;;;12.60;99.90;;;;;;5072507;28;20810;-64
2021/09/28 06:41:43;;;;;;;12.00;9.17;;;12.60;99.90;;;;;;5072090;28;20457;-64
2021/09/28 06:44:10;;;;;;;10.60;9.20;;;12.60;99.90;;;;;;5072426;28;20940;-64
2021/09/28 06:46:37;;;;;;;15.10;10.90;;;12.80;99.90;;;;;;5072558;28;20470;-64
2021/09/28 06:49:06;;;;;;;16.63;9.83;;;12.90;99.90;;;;;;5072753;28;20455;-64
2021/09/28 06:51:33;;;;;;;13.60;9.70;;;12.90;99.90;;;;;;5071922;28;20478;-64
2021/09/28 06:54:00;;;;;;;13.83;9.47;;;12.90;99.90;;;;;;5072369;28;20447;-64
2021/09/28 06:56:28;;;;;;;12.27;10.00;;;13.00;99.90;;;;;;5072622;28;20902;-64
2021/09/28 06:58:54;;;;;;;11.73;9.07;;;13.10;99.90;;;;;;5072874;28;20971;-64
2021/09/28 07:01:21;;;;;;;16.00;9.53;;;13.30;99.90;;;;;;5072403;28;20442;-65
2021/09/28 07:03:48;;;;;;;12.00;9.50;;;13.50;99.90;;;;;;5071979;28;20533;-64
2021/09/28 07:06:17;;;;;;;13.40;10.67;;;13.70;99.90;;;;;;5072593;28;20449;-64
2021/09/28 07:08:44;;;;;;;12.13;8.90;;;13.90;99.90;;;;;;5072623;28;21008;-64
2021/09/28 07:11:10;;;;;;;11.63;8.77;;;14.00;99.90;;;;;;5072298;28;21152;-64
2021/09/28 07:13:37;;;;;;;11.57;9.90;;;14.20;99.90;;;;;;5070853;28;20987;-63
2021/09/28 07:16:05;;;;;;;11.40;8.10;;;14.40;99.90;;;;;;5072507;28;20457;-64
2021/09/28 07:18:31;;;;;;;16.60;8.90;;;14.70;99.90;;;;;;5072443;28;20495;-64
2021/09/28 07:20:58;;;;;;;9.87;8.80;;;14.80;99.90;;;;;;5072192;28;20445;-63
2021/09/28 07:23:27;;;;;;;11.67;8.43;;;14.70;99.90;;;;;;5071125;28;20442;-63
2021/09/28 07:25:54;;;;;;;12.43;8.30;;;14.70;99.90;;;;;;5072187;28;20535;-63
2021/09/28 07:28:21;;;;;;;12.43;8.37;;;14.60;99.90;;;;;;5072078;28;20481;-63
2021/09/28 07:30:48;;;;;;;10.30;8.10;;;14.40;99.90;;;;;;5071882;28;20565;-63
2021/09/28 07:33:15;;;;;;;11.27;8.83;;;14.30;99.90;;;;;;5070752;28;20455;-63
2021/09/28 07:35:44;;;;;;;12.97;8.20;;;14.30;99.90;;;;;;5072026;28;20609;-63
2021/09/28 07:38:11;;;;;;;10.03;9.00;;;14.20;99.90;;;;;;5072075;28;20475;-64
2021/09/28 07:40:40;;;;;;;10.57;8.27;;;14.20;99.90;;;;;;5071505;28;20439;-64
2021/09/28 07:43:07;;;;;;;11.50;7.93;;;14.30;99.90;;;;;;5070560;28;20470;-63
2021/09/28 07:45:34;;;;;;;11.47;8.43;;;14.40;99.90;;;;;;5071362;28;21053;-63
2021/09/28 07:48:01;;;;;;;11.20;8.30;;;14.60;99.90;;;;;;5071419;28;20463;-63
2021/09/28 07:50:28;;;;;;;10.07;7.60;;;14.80;99.90;;;;;;5071687;28;20831;-63
2021/09/28 07:52:55;;;;;;;12.07;8.07;;;14.90;99.90;;;;;;5070296;28;20487;-63
2021/09/28 07:55:22;;;;;;;11.53;7.67;;;15.10;99.90;;;;;;5071564;28;20530;-63
2021/09/28 07:57:50;;;;;;;7.87;6.60;;;15.40;99.90;;;;;;5071399;28;20467;-64
2021/09/28 08:00:18;;;;;;;10.40;7.27;;;15.60;99.90;;;;;;5071422;28;20820;-64
2021/09/28 08:02:45;;;;;;;8.75;7.18;;;15.80;99.90;;;;;;5069129;28;20442;-64
2021/09/28 08:05:12;;;;;;;10.23;7.30;;;16.20;99.90;;;;;;5071381;28;20201;-63
2021/09/28 08:07:40;;;;;;;8.20;6.80;;;16.50;99.90;;;;;;5071222;28;20557;-63
2021/09/28 08:10:08;;;;;;;7.00;5.63;;;16.50;99.90;;;;;;5071156;28;20520;-64
2021/09/28 08:12:36;;;;;;;8.10;6.10;;;16.60;99.90;;;;;;5070226;28;20501;-63
2021/09/28 08:15:06;;;;;;;5.90;5.30;;;16.20;99.90;;;;;;5070521;28;20455;-63
2021/09/28 08:17:33;;;;;;;10.07;7.30;;;16.20;99.90;;;;;;5071213;28;20471;-63
2021/09/28 08:20:00;;;;;;;8.30;5.60;;;16.40;99.90;;;;;;5071025;28;20443;-63
2021/09/28 08:22:27;;;;;;;6.70;5.80;;;16.40;99.90;;;;;;5070248;28;20475;-63
2021/09/28 08:24:56;;;;;;;7.80;6.20;;;16.40;99.90;;;;;;5070466;28;20539;-63
2021/09/28 08:30:10;;;;;;;13.20;6.20;;;16.90;99.90;;;;;;5070753;28;20418;-64
2021/09/28 08:32:37;;;;;;;7.53;5.83;;;17.00;99.90;;;;;;5069869;28;20493;-64
2021/09/28 08:35:05;;;;;;;8.40;6.03;;;17.40;99.90;;;;;;5070361;28;20973;-64
2021/09/28 08:37:32;;;;;;;7.83;5.30;;;17.30;99.90;;;;;;5070576;28;21010;-64
2021/09/28 08:39:59;;;;;;;7.80;5.80;;;17.00;99.90;;;;;;5070530;28;20537;-64
2021/09/28 08:42:27;;;;;;;6.23;5.63;;;16.60;99.90;;;;;;5069966;28;20443;-65
2021/09/28 08:44:54;;;;;;;7.07;5.63;;;16.50;99.90;;;;;;5070181;28;20556;-64
2021/09/28 08:47:36;;;;;;;8.77;6.00;;;16.50;99.90;;;;;;5070557;28;20467;-64
2021/09/28 08:50:04;;;;;;;8.83;6.13;;;16.30;99.90;;;;;;5070154;28;21009;-64
2021/09/28 08:52:31;;;;;;;7.10;6.40;;;16.20;99.90;;;;;;5068970;28;21091;-64
2021/09/28 08:54:58;;;;;;;7.17;6.47;;;16.00;99.90;;;;;;5070181;28;20443;-64
2021/09/28 08:57:25;;;;;;;9.47;6.67;;;16.20;99.90;;;;;;5070272;28;20921;-64
2021/09/28 08:59:52;;;;;;;6.27;5.67;;;16.60;99.90;;;;;;5070188;28;20445;-65
2021/09/28 09:02:19;;;;;;;7.60;5.97;;;16.80;99.90;;;;;;5069492;28;20451;-65
2021/09/28 09:05:05;;;;;;;7.33;6.10;;;16.70;99.90;;;;;;5070139;28;20824;-65
2021/09/28 09:07:32;;;;;;;10.43;6.13;;;16.60;99.90;;;;;;5070329;28;20451;-65
2021/09/28 09:09:59;;;;;;;10.53;6.33;;;16.60;99.90;;;;;;5070246;28;20541;-65
2021/09/28 09:12:31;;;;;;;13.00;6.90;;;16.80;99.90;;;;;;5069081;28;20920;-65
2021/09/28 09:15:19;;;;;;;8.07;7.10;;;16.80;99.90;;;;;;5069572;28;20461;-65
2021/09/28 09:17:46;;;;;;;7.57;6.77;;;16.20;99.90;;;;;;5069806;28;20473;-65
2021/09/28 09:20:33;;;;;;;7.80;6.80;;;16.20;99.90;;;;;;5070095;28;20443;-65
2021/09/28 09:23:25;;;;;;;8.60;6.80;;;16.20;99.90;;;;;;5068714;28;20484;-65
2021/09/28 09:26:08;;;;;;;7.57;5.73;;;16.30;99.90;;;;;;5069763;28;20968;-65
2021/09/28 09:28:36;;;;;;;6.47;5.47;;;16.80;99.90;;;;;;5069893;28;20502;-65
2021/09/28 09:31:21;;;;;;;6.87;5.70;;;17.20;99.90;;;;;;5069727;28;20538;-65
2021/09/28 09:33:50;;;;;;;8.00;5.83;;;17.40;99.90;;;;;;5069127;28;20447;-65
2021/09/28 09:36:19;;;;;;;8.97;5.00;;;17.40;99.90;;;;;;5069519;28;20981;-65
2021/09/28 09:38:48;;;;;;;7.13;5.00;;;17.30;99.90;;;;;;5069617;28;20539;-65
2021/09/28 09:41:15;;;;;;;7.33;4.90;;;17.50;99.90;;;;;;5069731;28;20443;-65
2021/09/28 09:43:43;;;;;;;6.90;4.67;;;17.70;99.90;;;;;;5068721;28;20445;-65
2021/09/28 09:46:13;;;;;;;10.43;4.43;;;18.10;99.90;;;;;;5069476;28;20463;-65
2021/09/28 09:48:41;;;;;;;10.00;4.50;;;18.50;99.90;;;;;;5069469;28;20447;-65
2021/09/28 09:51:10;;;;;;;10.10;4.33;;;18.70;99.90;;;;;;5069323;28;20818;-66
2021/09/28 09:53:50;;;;;;;8.33;3.87;;;18.70;99.90;;;;;;5068480;28;20454;-65
2021/09/28 09:56:18;;;;;;;8.13;4.13;;;19.10;99.90;;;;;;5069472;28;20960;-65
2021/09/28 09:58:45;;;;;;;6.43;4.10;;;19.40;99.90;;;;;;5069547;28;20444;-65
2021/09/28 10:01:12;;;;;;;6.03;4.83;;;19.60;99.90;;;;;;5069502;28;20451;-64
2021/09/28 10:03:39;;;;;;;8.87;4.37;;;19.50;99.90;;;;;;5071951;28;20532;-65
2021/09/28 10:06:06;;;;;;;6.47;5.50;;;19.80;99.90;;;;;;5073641;28;20447;-65
2021/09/28 10:08:34;;;;;;;9.60;4.87;;;19.50;99.90;;;;;;5073426;28;20980;-65
2021/09/28 10:11:03;;;;;;;7.87;5.40;;;18.80;99.90;;;;;;5073478;28;20442;-65
2021/09/28 10:13:51;;;;;;;7.67;4.67;;;18.40;99.90;;;;;;5072373;28;20485;-65
2021/09/28 10:16:40;;;;;;;5.90;4.70;;;19.10;99.90;;;;;;5073686;28;20871;-65
2021/09/28 10:19:54;;;;;;;9.43;5.50;;;19.90;99.90;;;;;;5073647;28;20462;-64
2021/09/28 10:22:48;;;;;;;8.33;4.70;;;20.90;99.90;;;;;;5072476;28;20527;-63
2021/09/28 10:25:36;;;;;;;10.07;5.30;;;22.00;99.90;;;;;;5073363;28;20453;-64
2021/09/28 10:28:39;;;;;;;7.67;5.27;;;22.70;99.90;;;;;;5073452;28;20509;-65
2021/09/28 10:31:11;;;;;;;8.47;5.33;;;22.70;99.90;;;;;;5073388;28;20801;-64
2021/09/28 10:33:39;;;;;;;6.90;4.70;;;22.60;99.90;;;;;;5072417;28;20835;-64
2021/09/28 10:36:11;;;;;;;5.83;3.90;;;22.40;99.30;;;;;;5073374;28;20450;-64
2021/09/28 10:38:59;;;;;;;6.67;5.73;;;23.00;99.90;;;;;;5073459;28;20457;-65
2021/09/28 10:41:47;;;;;;;10.20;6.27;;;23.10;98.00;;;;;;5072521;28;20811;-64
2021/09/28 10:44:51;;;;;;;11.23;5.67;;;21.90;99.10;;;;;;5072981;28;20445;-64
2021/09/28 10:47:53;;;;;;;6.10;5.50;;;20.60;99.90;;;;;;5072785;28;20829;-64
2021/09/28 10:50:31;;;;;;;8.17;6.37;;;19.40;99.90;;;;;;5072862;28;20451;-64
2021/09/28 10:52:59;;;;;;;10.03;6.30;;;18.70;99.90;;;;;;5071371;28;20492;-64
2021/09/28 10:55:32;;;;;;;8.17;5.47;;;18.30;99.90;;;;;;5072496;28;20537;-64
2021/09/28 10:58:11;;;;;;;8.77;5.83;;;18.00;99.90;;;;;;5072857;28;20470;-64
2021/09/28 11:01:08;;;;;;;7.33;6.10;;;17.70;99.90;;;;;;5072311;28;20444;-64
2021/09/28 11:03:59;;;;;;;5.93;4.77;;;17.70;99.90;;;;;;5065170;28;20451;-65
2021/09/28 11:06:51;;;;;;;7.90;5.30;;;19.00;99.90;;;;;;5071202;28;20455;-65
2021/09/28 11:09:21;;;;;;;5.20;4.70;;;20.50;99.90;;;;;;5065365;28;20453;-64
2021/09/28 11:11:55;;;;;;;9.07;5.60;;;21.80;99.90;;;;;;5059108;28;20474;-64
2021/09/28 11:14:24;;;;;;;8.43;5.33;;;22.80;97.90;;;;;;5066351;28;20445;-65
2021/09/28 11:16:56;;;;;;;6.23;4.47;;;23.70;95.60;;;;;;5069784;28;20458;-65
2021/09/28 11:19:32;;;;;;;6.10;4.87;;;24.70;94.80;;;;;;5051220;28;20480;-65
2021/09/28 11:21:59;;;;;;;5.20;4.70;;;25.80;92.30;;;;;;5067947;28;20431;-65
2021/09/28 11:24:30;;;;;;;5.50;4.60;;;26.80;92.30;;;;;;5070724;28;21155;-65
2021/09/28 11:27:06;;;;;;;5.60;4.13;;;27.30;84.80;;;;;;5071388;28;20459;-65
2021/09/28 11:29:33;;;;;;;5.47;4.40;;;27.20;84.60;;;;;;5071332;28;20906;-65
2021/09/28 11:32:03;;;;;;;5.50;4.77;;;27.50;84.80;;;;;;5070295;28;21103;-65
2021/09/28 11:34:33;;;;;;;6.10;4.80;;;27.90;82.80;;;;;;5070599;28;20455;-65
2021/09/28 11:37:02;;;;;;;7.07;5.00;;;27.80;83.40;;;;;;5071009;28;20488;-65
2021/09/28 11:39:33;;;;;;;8.43;4.50;;;28.10;82.30;;;;;;5070980;28;20487;-65
2021/09/28 11:42:02;;;;;;;7.83;5.37;;;28.30;80.60;;;;;;5070592;28;20451;-65
2021/09/28 11:44:37;;;;;;;8.37;5.23;;;27.90;80.50;;;;;;5070812;28;20449;-65
2021/09/28 11:47:12;;;;;;;7.67;4.80;;;26.80;81.20;;;;;;5071098;28;20451;-65
2021/09/28 11:49:53;;;;;;;7.13;4.93;;;26.50;84.30;;;;;;5070583;28;20446;-65
2021/09/28 11:52:20;;;;;;;6.30;5.40;;;25.30;87.70;;;;;;5069860;28;20577;-65
2021/09/28 11:54:48;;;;;;;7.50;5.43;;;24.40;90.60;;;;;;5070699;28;20459;-65
2021/09/28 11:57:17;;;;;;;7.20;5.40;;;23.60;91.80;;;;;;5071194;28;20474;-64
2021/09/28 11:59:45;;;;;;;6.80;5.50;;;23.00;92.20;;;;;;5069789;28;20451;-65
2021/09/28 12:02:15;;;;;;;6.50;5.10;;;22.50;93.40;;;;;;5069512;28;20444;-65
2021/09/28 12:10:27;;;;;;;8.07;6.90;;;21.90;95.90;;;;;;5068488;28;20458;-65
2021/09/28 12:12:56;;;;;;;6.00;5.20;;;23.20;94.50;;;;;;5069200;28;20596;-65
2021/09/28 12:15:24;;;;;;;6.70;5.73;;;24.70;92.10;;;;;;5070129;28;20446;-65
2021/09/28 12:17:51;;;;;;;8.27;6.10;;;24.90;91.40;;;;;;5069960;28;20498;-65
2021/09/28 12:20:21;;;;;;;6.20;5.60;;;25.50;90.10;;;;;;5070234;28;20829;-65
2021/09/28 12:22:50;;;;;;;5.40;4.90;;;25.10;85.70;;;;;;5068855;28;20447;-65
2021/09/28 12:25:20;;;;;;;4.50;4.10;;;25.10;88.50;;;;;;5069171;28;21022;-65
2021/09/28 12:27:57;;;;;;;5.33;4.20;;;25.10;85.90;;;;;;5066707;28;20510;-64
2021/09/28 12:30:26;;;;;;;5.10;4.00;;;25.00;82.70;;;;;;5070268;28;20443;-65
2021/09/28 12:32:54;;;;;;;5.80;4.50;;;25.10;86.60;;;;;;5068774;28;20565;-65
2021/09/28 12:35:30;;;;;;;7.43;3.80;;;25.60;85.50;;;;;;5069858;28;20439;-65
2021/09/28 12:38:01;;;;;;;4.70;3.40;;;26.70;83.20;;;;;;5069707;28;20473;-65
2021/09/28 12:40:31;;;;;;;6.00;4.33;;;27.10;80.50;;;;;;5069849;28;20447;-65
2021/09/28 12:43:05;;;;;;;7.30;3.83;;;26.60;76.80;;;;;;5068504;28;20453;-65
2021/09/28 12:45:46;;;;;;;4.80;3.93;;;26.10;82.40;;;;;;5069601;28;20823;-65
2021/09/28 12:48:14;;;;;;;5.30;4.20;;;26.60;81.50;;;;;;5069562;28;20487;-65
2021/09/28 12:50:42;;;;;;;4.53;3.43;;;26.50;82.40;;;;;;5069385;28;20451;-66
2021/09/28 12:53:11;;;;;;;5.90;4.47;;;26.00;84.20;;;;;;5068618;28;20483;-66
2021/09/28 12:55:39;;;;;;;5.10;3.27;;;26.50;84.50;;;;;;5069242;28;20450;-66
2021/09/28 12:58:10;;;;;;;4.53;4.13;;;27.00;82.70;;;;;;5069589;28;20893;-66
2021/09/28 13:00:37;;;;;;;6.17;4.60;;;27.10;81.80;;;;;;5069635;28;20959;-66
2021/09/28 13:03:06;;;;;;;6.03;4.50;;;27.30;80.80;;;;;;5067990;28;20442;-66